sensor_id;sensor_type;location;lat;lon;timestamp;P1;durP1;ratioP1;P2;durP2;ratioP2
18407;SDS011;9330;52.210;21.174;2022-08-19T00:01:52;10.07;;;9.07;;
18407;SDS011;9330;52.210;21.174;2022-08-19T00:04:21;10.43;;;9.02;;
18407;SDS011;9330;52.210;21.174;2022-08-19T00:06:50;10.13;;;8.80;;
18407;SDS011;9330;52.210;21.174;2022-08-19T00:09:18;13.55;;;9.63;;
18407;SDS011;9330;52.210;21.174;2022-08-19T00:11:46;10.23;;;9.23;;
18407;SDS011;9330;52.210;21.174;2022-08-19T00:14:14;11.40;;;9.38;;
18407;SDS011;9330;52.210;21.174;2022-08-19T00:16:43;11.20;;;9.70;;
18407;SDS011;9330;52.210;21.174;2022-08-19T00:19:13;10.52;;;9.43;;
18407;SDS011;9330;52.210;21.174;2022-08-19T00:21:41;10.65;;;9.55;;
18407;SDS011;9330;52.210;21.174;2022-08-19T00:24:09;10.23;;;8.57;;
18407;SDS011;9330;52.210;21.174;2022-08-19T00:26:38;11.05;;;9.38;;
18407;SDS011;9330;52.210;21.174;2022-08-19T00:29:06;10.90;;;9.68;;
18407;SDS011;9330;52.210;21.174;2022-08-19T00:31:34;10.70;;;9.63;;
18407;SDS011;9330;52.210;21.174;2022-08-19T00:34:01;10.68;;;9.57;;
18407;SDS011;9330;52.210;21.174;2022-08-19T00:36:30;10.68;;;9.68;;
18407;SDS011;9330;52.210;21.174;2022-08-19T00:38:58;10.15;;;9.02;;
18407;SDS011;9330;52.210;21.174;2022-08-19T00:41:25;9.60;;;8.60;;
18407;SDS011;9330;52.210;21.174;2022-08-19T00:44:00;12.13;;;9.10;;
18407;SDS011;9330;52.210;21.174;2022-08-19T00:46:29;12.27;;;10.15;;
18407;SDS011;9330;52.210;21.174;2022-08-19T00:48:57;10.32;;;9.30;;
18407;SDS011;9330;52.210;21.174;2022-08-19T00:51:25;10.45;;;9.30;;
18407;SDS011;9330;52.210;21.174;2022-08-19T00:53:56;10.55;;;9.23;;
18407;SDS011;9330;52.210;21.174;2022-08-19T00:56:25;10.30;;;9.13;;
18407;SDS011;9330;52.210;21.174;2022-08-19T00:58:53;13.38;;;9.85;;
18407;SDS011;9330;52.210;21.174;2022-08-19T01:01:22;15.20;;;9.80;;
18407;SDS011;9330;52.210;21.174;2022-08-19T01:03:49;11.05;;;9.65;;
18407;SDS011;9330;52.210;21.174;2022-08-19T01:06:17;12.88;;;10.05;;
18407;SDS011;9330;52.210;21.174;2022-08-19T01:08:44;11.10;;;9.95;;
18407;SDS011;9330;52.210;21.174;2022-08-19T01:11:12;10.60;;;9.50;;
18407;SDS011;9330;52.210;21.174;2022-08-19T01:13:39;10.73;;;9.73;;
18407;SDS011;9330;52.210;21.174;2022-08-19T01:16:08;11.02;;;9.82;;
18407;SDS011;9330;52.210;21.174;2022-08-19T01:18:39;11.95;;;10.10;;
18407;SDS011;9330;52.210;21.174;2022-08-19T01:21:09;11.40;;;10.30;;
18407;SDS011;9330;52.210;21.174;2022-08-19T01:23:44;11.35;;;9.60;;
18407;SDS011;9330;52.210;21.174;2022-08-19T01:26:12;10.30;;;9.30;;
18407;SDS011;9330;52.210;21.174;2022-08-19T01:28:42;11.95;;;9.50;;
18407;SDS011;9330;52.210;21.174;2022-08-19T01:31:12;10.90;;;9.82;;
18407;SDS011;9330;52.210;21.174;2022-08-19T01:33:41;12.10;;;10.30;;
18407;SDS011;9330;52.210;21.174;2022-08-19T01:36:09;10.80;;;9.55;;
18407;SDS011;9330;52.210;21.174;2022-08-19T01:38:39;12.93;;;9.85;;
18407;SDS011;9330;52.210;21.174;2022-08-19T01:41:09;11.23;;;9.55;;
18407;SDS011;9330;52.210;21.174;2022-08-19T01:43:36;11.93;;;10.73;;
18407;SDS011;9330;52.210;21.174;2022-08-19T01:46:04;10.40;;;9.25;;
18407;SDS011;9330;52.210;21.174;2022-08-19T01:48:34;10.55;;;9.50;;
18407;SDS011;9330;52.210;21.174;2022-08-19T01:51:03;10.35;;;9.35;;
18407;SDS011;9330;52.210;21.174;2022-08-19T01:53:31;12.32;;;9.82;;
18407;SDS011;9330;52.210;21.174;2022-08-19T01:55:58;11.02;;;9.93;;
18407;SDS011;9330;52.210;21.174;2022-08-19T01:58:29;10.95;;;9.38;;
18407;SDS011;9330;52.210;21.174;2022-08-19T02:00:58;11.18;;;10.05;;
18407;SDS011;9330;52.210;21.174;2022-08-19T02:03:25;13.20;;;9.98;;
18407;SDS011;9330;52.210;21.174;2022-08-19T02:05:55;10.85;;;9.70;;
18407;SDS011;9330;52.210;21.174;2022-08-19T02:08:24;10.57;;;9.15;;
18407;SDS011;9330;52.210;21.174;2022-08-19T02:10:52;10.68;;;9.57;;
18407;SDS011;9330;52.210;21.174;2022-08-19T02:13:20;12.25;;;9.90;;
18407;SDS011;9330;52.210;21.174;2022-08-19T02:15:49;10.65;;;9.43;;
18407;SDS011;9330;52.210;21.174;2022-08-19T02:18:16;10.00;;;9.00;;
18407;SDS011;9330;52.210;21.174;2022-08-19T02:20:43;10.30;;;9.20;;
18407;SDS011;9330;52.210;21.174;2022-08-19T02:23:13;10.35;;;9.32;;
18407;SDS011;9330;52.210;21.174;2022-08-19T02:25:42;10.15;;;9.13;;
18407;SDS011;9330;52.210;21.174;2022-08-19T02:28:10;13.05;;;9.57;;
18407;SDS011;9330;52.210;21.174;2022-08-19T02:30:37;12.85;;;9.77;;
18407;SDS011;9330;52.210;21.174;2022-08-19T02:33:07;11.55;;;9.70;;
18407;SDS011;9330;52.210;21.174;2022-08-19T02:35:34;10.70;;;9.45;;
18407;SDS011;9330;52.210;21.174;2022-08-19T02:38:01;10.18;;;8.95;;
18407;SDS011;9330;52.210;21.174;2022-08-19T02:40:48;11.43;;;10.23;;
18407;SDS011;9330;52.210;21.174;2022-08-19T02:43:16;9.98;;;8.93;;
18407;SDS011;9330;52.210;21.174;2022-08-19T02:45:45;10.48;;;9.43;;
18407;SDS011;9330;52.210;21.174;2022-08-19T02:48:15;9.88;;;8.98;;
18407;SDS011;9330;52.210;21.174;2022-08-19T02:50:42;11.05;;;9.25;;
18407;SDS011;9330;52.210;21.174;2022-08-19T02:53:10;10.25;;;9.25;;
18407;SDS011;9330;52.210;21.174;2022-08-19T02:55:42;10.27;;;9.27;;
18407;SDS011;9330;52.210;21.174;2022-08-19T02:58:11;12.10;;;10.82;;
18407;SDS011;9330;52.210;21.174;2022-08-19T03:00:41;13.45;;;9.93;;
18407;SDS011;9330;52.210;21.174;2022-08-19T03:03:09;14.38;;;10.35;;
18407;SDS011;9330;52.210;21.174;2022-08-19T03:05:38;15.95;;;9.77;;
18407;SDS011;9330;52.210;21.174;2022-08-19T03:08:06;11.57;;;9.95;;
18407;SDS011;9330;52.210;21.174;2022-08-19T03:10:39;12.02;;;9.43;;
18407;SDS011;9330;52.210;21.174;2022-08-19T03:13:09;10.75;;;9.75;;
18407;SDS011;9330;52.210;21.174;2022-08-19T03:15:39;10.90;;;9.00;;
18407;SDS011;9330;52.210;21.174;2022-08-19T03:18:07;11.70;;;9.65;;
18407;SDS011;9330;52.210;21.174;2022-08-19T03:20:35;12.13;;;9.80;;
18407;SDS011;9330;52.210;21.174;2022-08-19T03:23:08;11.13;;;9.73;;
18407;SDS011;9330;52.210;21.174;2022-08-19T03:25:36;11.05;;;9.27;;
18407;SDS011;9330;52.210;21.174;2022-08-19T03:28:05;10.05;;;9.05;;
18407;SDS011;9330;52.210;21.174;2022-08-19T03:30:33;10.93;;;9.73;;
18407;SDS011;9330;52.210;21.174;2022-08-19T03:33:00;10.90;;;9.80;;
18407;SDS011;9330;52.210;21.174;2022-08-19T03:35:27;10.07;;;9.15;;
18407;SDS011;9330;52.210;21.174;2022-08-19T03:37:56;10.60;;;9.55;;
18407;SDS011;9330;52.210;21.174;2022-08-19T03:40:25;12.30;;;9.23;;
18407;SDS011;9330;52.210;21.174;2022-08-19T03:42:52;11.68;;;10.23;;
18407;SDS011;9330;52.210;21.174;2022-08-19T03:45:19;12.10;;;10.63;;
18407;SDS011;9330;52.210;21.174;2022-08-19T03:47:46;11.23;;;10.02;;
18407;SDS011;9330;52.210;21.174;2022-08-19T03:50:13;11.98;;;9.35;;
18407;SDS011;9330;52.210;21.174;2022-08-19T03:52:40;11.45;;;9.68;;
18407;SDS011;9330;52.210;21.174;2022-08-19T03:55:09;10.70;;;9.60;;
18407;SDS011;9330;52.210;21.174;2022-08-19T03:57:36;11.77;;;9.60;;
18407;SDS011;9330;52.210;21.174;2022-08-19T04:00:04;10.85;;;9.77;;
18407;SDS011;9330;52.210;21.174;2022-08-19T04:02:32;10.40;;;9.30;;
18407;SDS011;9330;52.210;21.174;2022-08-19T04:04:59;11.85;;;10.15;;
18407;SDS011;9330;52.210;21.174;2022-08-19T04:07:27;10.45;;;9.45;;
18407;SDS011;9330;52.210;21.174;2022-08-19T04:09:54;11.63;;;10.00;;
18407;SDS011;9330;52.210;21.174;2022-08-19T04:12:22;10.82;;;9.68;;
18407;SDS011;9330;52.210;21.174;2022-08-19T04:14:49;11.00;;;9.90;;
18407;SDS011;9330;52.210;21.174;2022-08-19T04:17:16;11.18;;;10.00;;
18407;SDS011;9330;52.210;21.174;2022-08-19T04:19:43;10.00;;;8.60;;
18407;SDS011;9330;52.210;21.174;2022-08-19T04:22:10;12.13;;;9.85;;
18407;SDS011;9330;52.210;21.174;2022-08-19T04:24:37;13.63;;;9.80;;
18407;SDS011;9330;52.210;21.174;2022-08-19T04:27:05;11.32;;;9.63;;
18407;SDS011;9330;52.210;21.174;2022-08-19T04:29:33;10.73;;;9.05;;
18407;SDS011;9330;52.210;21.174;2022-08-19T04:32:00;11.05;;;9.93;;
18407;SDS011;9330;52.210;21.174;2022-08-19T04:34:28;10.60;;;9.32;;
18407;SDS011;9330;52.210;21.174;2022-08-19T04:36:56;10.05;;;8.93;;
18407;SDS011;9330;52.210;21.174;2022-08-19T04:39:25;10.30;;;9.40;;
18407;SDS011;9330;52.210;21.174;2022-08-19T04:42:14;10.15;;;9.15;;
18407;SDS011;9330;52.210;21.174;2022-08-19T04:45:01;10.50;;;9.35;;
18407;SDS011;9330;52.210;21.174;2022-08-19T04:47:29;11.95;;;9.27;;
18407;SDS011;9330;52.210;21.174;2022-08-19T04:49:58;10.85;;;8.93;;
18407;SDS011;9330;52.210;21.174;2022-08-19T04:52:25;9.73;;;8.75;;
18407;SDS011;9330;52.210;21.174;2022-08-19T04:54:52;10.05;;;9.15;;
18407;SDS011;9330;52.210;21.174;2022-08-19T04:57:20;11.07;;;9.52;;
18407;SDS011;9330;52.210;21.174;2022-08-19T04:59:47;10.52;;;9.05;;
18407;SDS011;9330;52.210;21.174;2022-08-19T05:02:16;12.70;;;9.25;;
18407;SDS011;9330;52.210;21.174;2022-08-19T05:04:43;10.73;;;9.50;;
18407;SDS011;9330;52.210;21.174;2022-08-19T05:07:10;12.00;;;8.38;;
18407;SDS011;9330;52.210;21.174;2022-08-19T05:09:37;11.45;;;9.10;;
18407;SDS011;9330;52.210;21.174;2022-08-19T05:12:04;9.88;;;8.88;;
18407;SDS011;9330;52.210;21.174;2022-08-19T05:14:32;10.55;;;8.18;;
18407;SDS011;9330;52.210;21.174;2022-08-19T05:17:00;9.15;;;8.35;;
18407;SDS011;9330;52.210;21.174;2022-08-19T05:19:28;9.88;;;8.50;;
18407;SDS011;9330;52.210;21.174;2022-08-19T05:22:13;9.20;;;8.20;;
18407;SDS011;9330;52.210;21.174;2022-08-19T05:24:59;9.52;;;8.73;;
18407;SDS011;9330;52.210;21.174;2022-08-19T05:27:32;9.07;;;8.20;;
18407;SDS011;9330;52.210;21.174;2022-08-19T05:29:59;9.43;;;8.52;;
18407;SDS011;9330;52.210;21.174;2022-08-19T05:32:27;9.15;;;7.65;;
18407;SDS011;9330;52.210;21.174;2022-08-19T05:34:55;9.23;;;8.07;;
18407;SDS011;9330;52.210;21.174;2022-08-19T05:37:22;10.68;;;8.43;;
18407;SDS011;9330;52.210;21.174;2022-08-19T05:39:51;10.20;;;8.60;;
18407;SDS011;9330;52.210;21.174;2022-08-19T05:42:19;10.20;;;8.65;;
18407;SDS011;9330;52.210;21.174;2022-08-19T05:44:48;8.38;;;7.32;;
18407;SDS011;9330;52.210;21.174;2022-08-19T05:47:16;10.43;;;8.40;;
18407;SDS011;9330;52.210;21.174;2022-08-19T05:49:44;13.85;;;8.40;;
18407;SDS011;9330;52.210;21.174;2022-08-19T05:52:14;14.00;;;8.25;;
18407;SDS011;9330;52.210;21.174;2022-08-19T05:54:41;10.15;;;8.65;;
18407;SDS011;9330;52.210;21.174;2022-08-19T05:57:12;9.15;;;7.80;;
18407;SDS011;9330;52.210;21.174;2022-08-19T05:59:43;10.75;;;8.40;;
18407;SDS011;9330;52.210;21.174;2022-08-19T06:02:15;9.20;;;8.30;;
18407;SDS011;9330;52.210;21.174;2022-08-19T06:04:42;8.38;;;7.57;;
18407;SDS011;9330;52.210;21.174;2022-08-19T06:07:09;9.95;;;8.00;;
18407;SDS011;9330;52.210;21.174;2022-08-19T06:09:37;7.82;;;7.13;;
18407;SDS011;9330;52.210;21.174;2022-08-19T06:12:05;10.85;;;7.65;;
18407;SDS011;9330;52.210;21.174;2022-08-19T06:14:33;9.88;;;8.10;;
18407;SDS011;9330;52.210;21.174;2022-08-19T06:17:03;12.38;;;7.72;;
18407;SDS011;9330;52.210;21.174;2022-08-19T06:19:30;10.93;;;7.97;;
18407;SDS011;9330;52.210;21.174;2022-08-19T06:21:58;8.35;;;7.55;;
18407;SDS011;9330;52.210;21.174;2022-08-19T06:24:27;8.90;;;7.03;;
18407;SDS011;9330;52.210;21.174;2022-08-19T06:26:57;11.00;;;7.93;;
18407;SDS011;9330;52.210;21.174;2022-08-19T06:29:26;8.48;;;7.55;;
18407;SDS011;9330;52.210;21.174;2022-08-19T06:31:55;8.90;;;7.57;;
18407;SDS011;9330;52.210;21.174;2022-08-19T06:34:24;9.63;;;7.35;;
18407;SDS011;9330;52.210;21.174;2022-08-19T06:36:53;9.30;;;7.43;;
18407;SDS011;9330;52.210;21.174;2022-08-19T06:39:21;9.73;;;7.93;;
18407;SDS011;9330;52.210;21.174;2022-08-19T06:41:50;8.63;;;7.82;;
18407;SDS011;9330;52.210;21.174;2022-08-19T06:44:22;8.55;;;7.75;;
18407;SDS011;9330;52.210;21.174;2022-08-19T06:46:52;9.68;;;8.20;;
18407;SDS011;9330;52.210;21.174;2022-08-19T06:49:19;10.30;;;8.60;;
18407;SDS011;9330;52.210;21.174;2022-08-19T06:51:47;8.27;;;7.40;;
18407;SDS011;9330;52.210;21.174;2022-08-19T06:54:15;8.35;;;7.50;;
18407;SDS011;9330;52.210;21.174;2022-08-19T06:56:44;8.63;;;7.72;;
18407;SDS011;9330;52.210;21.174;2022-08-19T06:59:12;9.70;;;7.38;;
18407;SDS011;9330;52.210;21.174;2022-08-19T07:01:42;8.57;;;7.70;;
18407;SDS011;9330;52.210;21.174;2022-08-19T07:04:13;9.23;;;7.90;;
18407;SDS011;9330;52.210;21.174;2022-08-19T07:06:42;10.68;;;7.90;;
18407;SDS011;9330;52.210;21.174;2022-08-19T07:09:09;11.05;;;7.97;;
18407;SDS011;9330;52.210;21.174;2022-08-19T07:11:38;9.75;;;7.80;;
18407;SDS011;9330;52.210;21.174;2022-08-19T07:14:05;11.05;;;8.15;;
18407;SDS011;9330;52.210;21.174;2022-08-19T07:16:32;10.10;;;7.57;;
18407;SDS011;9330;52.210;21.174;2022-08-19T07:19:00;8.65;;;7.85;;
18407;SDS011;9330;52.210;21.174;2022-08-19T07:21:28;9.75;;;7.95;;
18407;SDS011;9330;52.210;21.174;2022-08-19T07:23:55;8.88;;;7.97;;
18407;SDS011;9330;52.210;21.174;2022-08-19T07:26:24;9.07;;;8.18;;
18407;SDS011;9330;52.210;21.174;2022-08-19T07:28:53;9.45;;;8.50;;
18407;SDS011;9330;52.210;21.174;2022-08-19T07:31:24;8.60;;;7.75;;
18407;SDS011;9330;52.210;21.174;2022-08-19T07:33:53;9.60;;;8.70;;
18407;SDS011;9330;52.210;21.174;2022-08-19T07:36:24;10.88;;;8.30;;
18407;SDS011;9330;52.210;21.174;2022-08-19T07:38:57;10.50;;;7.88;;
18407;SDS011;9330;52.210;21.174;2022-08-19T07:41:27;9.65;;;8.68;;
18407;SDS011;9330;52.210;21.174;2022-08-19T07:43:56;8.70;;;7.47;;
18407;SDS011;9330;52.210;21.174;2022-08-19T07:46:23;8.52;;;7.82;;
18407;SDS011;9330;52.210;21.174;2022-08-19T07:48:53;9.45;;;8.48;;
18407;SDS011;9330;52.210;21.174;2022-08-19T07:51:20;11.43;;;7.70;;
18407;SDS011;9330;52.210;21.174;2022-08-19T07:53:49;7.68;;;6.97;;
18407;SDS011;9330;52.210;21.174;2022-08-19T07:56:16;7.90;;;7.10;;
18407;SDS011;9330;52.210;21.174;2022-08-19T07:58:45;9.57;;;7.28;;
18407;SDS011;9330;52.210;21.174;2022-08-19T08:01:16;8.68;;;7.30;;
18407;SDS011;9330;52.210;21.174;2022-08-19T08:03:45;10.43;;;7.10;;
18407;SDS011;9330;52.210;21.174;2022-08-19T08:06:32;11.27;;;6.93;;
18407;SDS011;9330;52.210;21.174;2022-08-19T08:09:18;8.55;;;7.75;;
18407;SDS011;9330;52.210;21.174;2022-08-19T08:11:48;7.95;;;7.13;;
18407;SDS011;9330;52.210;21.174;2022-08-19T08:14:19;10.30;;;7.40;;
18407;SDS011;9330;52.210;21.174;2022-08-19T08:16:49;10.00;;;7.30;;
18407;SDS011;9330;52.210;21.174;2022-08-19T08:19:17;11.18;;;7.88;;
18407;SDS011;9330;52.210;21.174;2022-08-19T08:21:47;9.38;;;7.15;;
18407;SDS011;9330;52.210;21.174;2022-08-19T08:24:14;7.57;;;6.82;;
18407;SDS011;9330;52.210;21.174;2022-08-19T08:26:42;9.68;;;7.18;;
18407;SDS011;9330;52.210;21.174;2022-08-19T08:29:10;10.55;;;6.88;;
18407;SDS011;9330;52.210;21.174;2022-08-19T08:31:37;9.13;;;7.45;;
18407;SDS011;9330;52.210;21.174;2022-08-19T08:34:05;7.20;;;6.50;;
18407;SDS011;9330;52.210;21.174;2022-08-19T08:36:35;11.60;;;7.05;;
18407;SDS011;9330;52.210;21.174;2022-08-19T08:39:07;8.57;;;6.97;;
18407;SDS011;9330;52.210;21.174;2022-08-19T08:41:34;10.15;;;7.53;;
18407;SDS011;9330;52.210;21.174;2022-08-19T08:44:20;9.23;;;7.30;;
18407;SDS011;9330;52.210;21.174;2022-08-19T08:46:50;9.35;;;6.85;;
18407;SDS011;9330;52.210;21.174;2022-08-19T08:49:25;10.13;;;7.55;;
18407;SDS011;9330;52.210;21.174;2022-08-19T08:51:59;8.43;;;7.45;;
18407;SDS011;9330;52.210;21.174;2022-08-19T08:54:35;7.70;;;6.90;;
18407;SDS011;9330;52.210;21.174;2022-08-19T08:57:07;7.32;;;6.63;;
18407;SDS011;9330;52.210;21.174;2022-08-19T08:59:39;9.75;;;7.03;;
18407;SDS011;9330;52.210;21.174;2022-08-19T09:02:08;9.10;;;6.95;;
18407;SDS011;9330;52.210;21.174;2022-08-19T09:04:35;7.15;;;6.43;;
18407;SDS011;9330;52.210;21.174;2022-08-19T09:07:13;10.65;;;7.07;;
18407;SDS011;9330;52.210;21.174;2022-08-19T09:09:54;7.30;;;6.43;;
18407;SDS011;9330;52.210;21.174;2022-08-19T09:12:31;9.35;;;7.25;;
18407;SDS011;9330;52.210;21.174;2022-08-19T09:15:06;8.23;;;7.03;;
18407;SDS011;9330;52.210;21.174;2022-08-19T09:17:35;10.45;;;7.30;;
18407;SDS011;9330;52.210;21.174;2022-08-19T09:20:06;9.07;;;6.90;;
18407;SDS011;9330;52.210;21.174;2022-08-19T09:22:45;7.70;;;6.95;;
18407;SDS011;9330;52.210;21.174;2022-08-19T09:25:16;12.60;;;7.30;;
18407;SDS011;9330;52.210;21.174;2022-08-19T09:27:46;7.68;;;6.80;;
18407;SDS011;9330;52.210;21.174;2022-08-19T09:30:14;8.32;;;7.43;;
18407;SDS011;9330;52.210;21.174;2022-08-19T09:32:43;7.10;;;6.40;;
18407;SDS011;9330;52.210;21.174;2022-08-19T09:35:11;9.65;;;6.40;;
18407;SDS011;9330;52.210;21.174;2022-08-19T09:37:39;6.95;;;6.25;;
18407;SDS011;9330;52.210;21.174;2022-08-19T09:40:06;6.97;;;6.30;;
18407;SDS011;9330;52.210;21.174;2022-08-19T09:42:36;10.50;;;6.60;;
18407;SDS011;9330;52.210;21.174;2022-08-19T09:45:03;7.45;;;6.32;;
18407;SDS011;9330;52.210;21.174;2022-08-19T09:47:31;9.73;;;6.65;;
18407;SDS011;9330;52.210;21.174;2022-08-19T09:50:01;9.13;;;6.38;;
18407;SDS011;9330;52.210;21.174;2022-08-19T09:52:28;6.65;;;6.03;;
18407;SDS011;9330;52.210;21.174;2022-08-19T09:54:55;10.40;;;6.50;;
18407;SDS011;9330;52.210;21.174;2022-08-19T09:57:22;8.10;;;5.93;;
18407;SDS011;9330;52.210;21.174;2022-08-19T09:59:51;7.63;;;6.85;;
18407;SDS011;9330;52.210;21.174;2022-08-19T10:02:18;10.60;;;6.55;;
18407;SDS011;9330;52.210;21.174;2022-08-19T10:04:45;7.93;;;6.53;;
18407;SDS011;9330;52.210;21.174;2022-08-19T10:07:30;7.10;;;6.38;;
18407;SDS011;9330;52.210;21.174;2022-08-19T10:09:57;8.18;;;6.65;;
18407;SDS011;9330;52.210;21.174;2022-08-19T10:12:24;8.63;;;6.47;;
18407;SDS011;9330;52.210;21.174;2022-08-19T10:14:53;9.98;;;6.57;;
18407;SDS011;9330;52.210;21.174;2022-08-19T10:17:20;7.93;;;6.03;;
18407;SDS011;9330;52.210;21.174;2022-08-19T10:19:47;9.00;;;6.40;;
18407;SDS011;9330;52.210;21.174;2022-08-19T10:22:14;9.48;;;6.22;;
18407;SDS011;9330;52.210;21.174;2022-08-19T10:24:41;8.95;;;6.47;;
18407;SDS011;9330;52.210;21.174;2022-08-19T10:27:08;8.90;;;6.10;;
18407;SDS011;9330;52.210;21.174;2022-08-19T10:29:35;8.30;;;6.20;;
18407;SDS011;9330;52.210;21.174;2022-08-19T10:32:04;10.40;;;5.95;;
18407;SDS011;9330;52.210;21.174;2022-08-19T10:34:33;8.43;;;6.05;;
18407;SDS011;9330;52.210;21.174;2022-08-19T10:37:02;7.93;;;5.80;;
18407;SDS011;9330;52.210;21.174;2022-08-19T10:39:31;10.55;;;6.50;;
18407;SDS011;9330;52.210;21.174;2022-08-19T10:41:58;6.63;;;5.28;;
18407;SDS011;9330;52.210;21.174;2022-08-19T10:44:26;9.20;;;5.32;;
18407;SDS011;9330;52.210;21.174;2022-08-19T10:46:53;10.25;;;5.85;;
18407;SDS011;9330;52.210;21.174;2022-08-19T10:49:21;10.32;;;5.47;;
18407;SDS011;9330;52.210;21.174;2022-08-19T10:51:49;7.70;;;5.38;;
18407;SDS011;9330;52.210;21.174;2022-08-19T10:54:33;5.93;;;5.35;;
18407;SDS011;9330;52.210;21.174;2022-08-19T10:57:30;7.63;;;5.20;;
18407;SDS011;9330;52.210;21.174;2022-08-19T10:59:57;9.15;;;5.43;;
18407;SDS011;9330;52.210;21.174;2022-08-19T11:02:24;11.18;;;5.43;;
18407;SDS011;9330;52.210;21.174;2022-08-19T11:04:53;10.57;;;5.65;;
18407;SDS011;9330;52.210;21.174;2022-08-19T11:07:20;6.47;;;5.63;;
18407;SDS011;9330;52.210;21.174;2022-08-19T11:09:49;6.72;;;5.00;;
18407;SDS011;9330;52.210;21.174;2022-08-19T11:12:16;5.90;;;4.70;;
18407;SDS011;9330;52.210;21.174;2022-08-19T11:14:44;7.05;;;5.13;;
18407;SDS011;9330;52.210;21.174;2022-08-19T11:17:15;8.55;;;5.65;;
18407;SDS011;9330;52.210;21.174;2022-08-19T11:19:42;5.93;;;5.32;;
18407;SDS011;9330;52.210;21.174;2022-08-19T11:22:10;7.72;;;5.72;;
18407;SDS011;9330;52.210;21.174;2022-08-19T11:24:37;7.40;;;4.78;;
18407;SDS011;9330;52.210;21.174;2022-08-19T11:27:06;6.80;;;5.38;;
18407;SDS011;9330;52.210;21.174;2022-08-19T11:29:35;6.80;;;4.85;;
18407;SDS011;9330;52.210;21.174;2022-08-19T11:32:05;7.10;;;5.43;;
18407;SDS011;9330;52.210;21.174;2022-08-19T11:34:34;6.65;;;5.30;;
18407;SDS011;9330;52.210;21.174;2022-08-19T11:37:02;7.40;;;4.75;;
18407;SDS011;9330;52.210;21.174;2022-08-19T11:39:32;9.13;;;5.60;;
18407;SDS011;9330;52.210;21.174;2022-08-19T11:42:00;8.30;;;5.30;;
18407;SDS011;9330;52.210;21.174;2022-08-19T11:44:28;9.80;;;5.30;;
18407;SDS011;9330;52.210;21.174;2022-08-19T11:46:55;9.15;;;5.70;;
18407;SDS011;9330;52.210;21.174;2022-08-19T11:49:22;6.78;;;5.07;;
18407;SDS011;9330;52.210;21.174;2022-08-19T11:51:49;6.10;;;5.47;;
18407;SDS011;9330;52.210;21.174;2022-08-19T11:54:16;7.28;;;5.22;;
18407;SDS011;9330;52.210;21.174;2022-08-19T11:56:45;9.38;;;5.15;;
18407;SDS011;9330;52.210;21.174;2022-08-19T11:59:14;6.05;;;5.00;;
18407;SDS011;9330;52.210;21.174;2022-08-19T12:01:41;8.18;;;4.97;;
18407;SDS011;9330;52.210;21.174;2022-08-19T12:04:08;8.00;;;5.13;;
18407;SDS011;9330;52.210;21.174;2022-08-19T12:06:37;7.28;;;4.93;;
18407;SDS011;9330;52.210;21.174;2022-08-19T12:09:07;6.95;;;4.78;;
18407;SDS011;9330;52.210;21.174;2022-08-19T12:11:35;6.35;;;4.68;;
18407;SDS011;9330;52.210;21.174;2022-08-19T12:14:04;7.00;;;5.13;;
18407;SDS011;9330;52.210;21.174;2022-08-19T12:16:31;4.90;;;4.50;;
18407;SDS011;9330;52.210;21.174;2022-08-19T12:18:59;7.50;;;4.55;;
18407;SDS011;9330;52.210;21.174;2022-08-19T12:21:29;5.18;;;4.50;;
18407;SDS011;9330;52.210;21.174;2022-08-19T12:23:57;4.95;;;4.40;;
18407;SDS011;9330;52.210;21.174;2022-08-19T12:26:26;7.10;;;4.70;;
18407;SDS011;9330;52.210;21.174;2022-08-19T12:28:54;6.22;;;4.18;;
18407;SDS011;9330;52.210;21.174;2022-08-19T12:31:22;6.53;;;4.65;;
18407;SDS011;9330;52.210;21.174;2022-08-19T12:33:49;6.30;;;4.65;;
18407;SDS011;9330;52.210;21.174;2022-08-19T12:36:17;4.82;;;4.32;;
18407;SDS011;9330;52.210;21.174;2022-08-19T12:38:44;6.00;;;4.43;;
18407;SDS011;9330;52.210;21.174;2022-08-19T12:41:12;6.32;;;4.60;;
18407;SDS011;9330;52.210;21.174;2022-08-19T12:43:42;7.05;;;5.18;;
18407;SDS011;9330;52.210;21.174;2022-08-19T12:46:09;7.82;;;4.38;;
18407;SDS011;9330;52.210;21.174;2022-08-19T12:48:39;5.47;;;4.30;;
18407;SDS011;9330;52.210;21.174;2022-08-19T12:51:11;9.07;;;4.82;;
18407;SDS011;9330;52.210;21.174;2022-08-19T12:53:40;5.72;;;4.35;;
18407;SDS011;9330;52.210;21.174;2022-08-19T12:56:08;5.55;;;4.40;;
18407;SDS011;9330;52.210;21.174;2022-08-19T12:58:37;12.27;;;4.50;;
18407;SDS011;9330;52.210;21.174;2022-08-19T13:01:07;7.53;;;5.20;;
18407;SDS011;9330;52.210;21.174;2022-08-19T13:03:36;9.80;;;4.50;;
18407;SDS011;9330;52.210;21.174;2022-08-19T13:06:05;6.25;;;4.28;;
18407;SDS011;9330;52.210;21.174;2022-08-19T13:08:33;8.57;;;4.55;;
18407;SDS011;9330;52.210;21.174;2022-08-19T13:11:06;6.47;;;4.40;;
18407;SDS011;9330;52.210;21.174;2022-08-19T13:13:36;6.88;;;4.53;;
18407;SDS011;9330;52.210;21.174;2022-08-19T13:16:06;7.72;;;4.43;;
18407;SDS011;9330;52.210;21.174;2022-08-19T13:18:34;5.18;;;4.35;;
18407;SDS011;9330;52.210;21.174;2022-08-19T13:21:03;6.50;;;4.47;;
18407;SDS011;9330;52.210;21.174;2022-08-19T13:23:32;8.35;;;4.65;;
18407;SDS011;9330;52.210;21.174;2022-08-19T13:26:01;6.38;;;4.47;;
18407;SDS011;9330;52.210;21.174;2022-08-19T13:28:29;7.07;;;4.03;;
18407;SDS011;9330;52.210;21.174;2022-08-19T13:31:17;7.22;;;4.10;;
18407;SDS011;9330;52.210;21.174;2022-08-19T13:34:03;7.25;;;4.18;;
18407;SDS011;9330;52.210;21.174;2022-08-19T13:36:32;6.60;;;4.22;;
18407;SDS011;9330;52.210;21.174;2022-08-19T13:39:00;4.70;;;4.30;;
18407;SDS011;9330;52.210;21.174;2022-08-19T13:41:27;4.72;;;4.30;;
18407;SDS011;9330;52.210;21.174;2022-08-19T13:43:54;7.97;;;5.00;;
18407;SDS011;9330;52.210;21.174;2022-08-19T13:46:21;6.85;;;4.38;;
18407;SDS011;9330;52.210;21.174;2022-08-19T13:48:49;6.97;;;4.30;;
18407;SDS011;9330;52.210;21.174;2022-08-19T13:51:16;5.88;;;4.35;;
18407;SDS011;9330;52.210;21.174;2022-08-19T13:53:45;6.85;;;4.07;;
18407;SDS011;9330;52.210;21.174;2022-08-19T13:56:13;7.55;;;4.45;;
18407;SDS011;9330;52.210;21.174;2022-08-19T13:58:42;5.85;;;4.20;;
18407;SDS011;9330;52.210;21.174;2022-08-19T14:01:09;6.47;;;4.43;;
18407;SDS011;9330;52.210;21.174;2022-08-19T14:03:37;5.93;;;4.60;;
18407;SDS011;9330;52.210;21.174;2022-08-19T14:06:04;7.65;;;4.95;;
18407;SDS011;9330;52.210;21.174;2022-08-19T14:08:31;6.00;;;4.30;;
18407;SDS011;9330;52.210;21.174;2022-08-19T14:11:00;8.70;;;4.72;;
18407;SDS011;9330;52.210;21.174;2022-08-19T14:13:27;8.77;;;4.72;;
18407;SDS011;9330;52.210;21.174;2022-08-19T14:15:54;6.68;;;4.30;;
18407;SDS011;9330;52.210;21.174;2022-08-19T14:18:21;8.38;;;4.43;;
18407;SDS011;9330;52.210;21.174;2022-08-19T14:20:49;6.80;;;4.20;;
18407;SDS011;9330;52.210;21.174;2022-08-19T14:23:16;9.32;;;4.57;;
18407;SDS011;9330;52.210;21.174;2022-08-19T14:25:43;5.07;;;3.85;;
18407;SDS011;9330;52.210;21.174;2022-08-19T14:28:12;6.95;;;4.13;;
18407;SDS011;9330;52.210;21.174;2022-08-19T14:30:41;5.03;;;4.20;;
18407;SDS011;9330;52.210;21.174;2022-08-19T14:33:09;8.30;;;4.50;;
18407;SDS011;9330;52.210;21.174;2022-08-19T14:35:36;5.35;;;3.88;;
18407;SDS011;9330;52.210;21.174;2022-08-19T14:38:04;6.22;;;4.00;;
18407;SDS011;9330;52.210;21.174;2022-08-19T14:40:41;4.57;;;4.15;;
18407;SDS011;9330;52.210;21.174;2022-08-19T14:43:08;5.07;;;4.10;;
18407;SDS011;9330;52.210;21.174;2022-08-19T14:45:37;6.07;;;3.88;;
18407;SDS011;9330;52.210;21.174;2022-08-19T14:48:05;7.43;;;4.55;;
18407;SDS011;9330;52.210;21.174;2022-08-19T14:50:34;7.25;;;4.10;;
18407;SDS011;9330;52.210;21.174;2022-08-19T14:53:03;7.03;;;4.60;;